Toro, Spain
Current Conditions -  °F | °C
As of 11:30 AM on Thursday 27 Nov 2014 (Local Time) from LEVD Reporting Station
Broken Clouds Broken Clouds  
Wind Chill: 37°   Ceiling: 4500
Heat Index: 43°   Visibility: 6mi
Dew Point: 41°   Wind: 9mph
Humidity: 93%   Direction: 100°E
Pressure: 29.53"   Gusts: NA
Location:  41.53°N, 5.39°W
Report Text: LEVD 271030Z 10008KT 9999 BKN045 06/05 Q1000
Loading
Personal Weather Stations






























Interactive Weather Map New forecast layout! Learn more

10-Day Weather Forecast

Advertisements
Track Severe Weather on mobile